createdAt,value
2023-02-19T00:00:26.986Z,9.01
2023-02-19T00:02:56.956Z,8.99
2023-02-19T00:05:25.848Z,9.03
2023-02-19T00:07:54.579Z,9.01
2023-02-19T00:10:23.043Z,8.98
2023-02-19T00:12:51.476Z,9.01
2023-02-19T00:15:19.824Z,9.04
2023-02-19T00:17:51.641Z,9.06
2023-02-19T00:20:20.216Z,8.99
2023-02-19T00:22:50.021Z,9.03
2023-02-19T00:25:18.785Z,9.05
2023-02-19T00:27:47.122Z,9.02
2023-02-19T00:30:15.699Z,9.04
2023-02-19T00:32:44.587Z,9.07
2023-02-19T00:35:14.650Z,9.02
2023-02-19T00:37:43.181Z,9.03
2023-02-19T00:40:12.373Z,9.03
2023-02-19T00:42:40.731Z,9.03
2023-02-19T00:45:09.855Z,9.07
2023-02-19T00:47:38.304Z,9.04
2023-02-19T00:50:07.032Z,9.00
2023-02-19T00:52:36.868Z,8.99
2023-02-19T00:55:05.736Z,8.98
2023-02-19T00:57:34.256Z,9.01
2023-02-19T01:00:02.606Z,8.96
2023-02-19T01:02:31.029Z,9.01
2023-02-19T01:04:59.461Z,9.09
2023-02-19T01:07:27.846Z,9.06
2023-02-19T01:09:57.733Z,9.00
2023-02-19T01:12:28.060Z,8.94
2023-02-19T01:14:56.424Z,9.03
2023-02-19T01:17:25.197Z,9.06
2023-02-19T01:19:54.127Z,9.02
2023-02-19T01:22:22.649Z,8.95
2023-02-19T01:24:51.281Z,8.99
2023-02-19T01:27:20.961Z,9.02
2023-02-19T01:29:49.317Z,9.03
2023-02-19T01:32:17.764Z,8.98
2023-02-19T01:34:46.436Z,8.97
2023-02-19T01:37:14.770Z,9.00
2023-02-19T01:39:43.168Z,8.95
2023-02-19T01:42:16.745Z,9.00
2023-02-19T01:45:25.021Z,9.00
2023-02-19T01:48:03.815Z,9.03
2023-02-19T01:50:35.659Z,8.98
2023-02-19T01:53:07.948Z,8.92
2023-02-19T01:55:37.252Z,8.91
2023-02-19T01:58:06.440Z,8.95
2023-02-19T02:00:35.248Z,8.97
2023-02-19T02:03:05.869Z,8.87
2023-02-19T02:05:45.233Z,8.85
2023-02-19T02:08:33.051Z,8.80
2023-02-19T02:11:02.054Z,8.78
2023-02-19T02:13:30.796Z,8.71
2023-02-19T02:16:09.313Z,8.71
2023-02-19T02:18:49.438Z,8.69
2023-02-19T02:21:36.396Z,8.73
2023-02-19T02:24:40.604Z,8.63
2023-02-19T02:27:32.177Z,8.64
2023-02-19T02:30:15.088Z,8.66
2023-02-19T02:32:53.608Z,8.61
2023-02-19T02:35:24.591Z,8.59
2023-02-19T02:37:57.138Z,8.54
2023-02-19T02:40:26.407Z,8.50
2023-02-19T02:42:58.448Z,8.53
2023-02-19T02:45:38.087Z,8.53
2023-02-19T02:48:14.641Z,8.48
2023-02-19T02:50:47.438Z,8.46
2023-02-19T02:53:39.311Z,8.55
2023-02-19T02:56:10.512Z,8.47
2023-02-19T02:58:39.849Z,8.46
2023-02-19T03:01:29.653Z,8.48
2023-02-19T03:04:03.393Z,8.43
2023-02-19T03:06:35.043Z,8.44
2023-02-19T03:09:10.679Z,8.42
2023-02-19T03:11:59.857Z,8.40
2023-02-19T03:14:52.879Z,8.37
2023-02-19T03:17:45.359Z,8.41
2023-02-19T03:20:17.298Z,8.39
2023-02-19T03:22:47.731Z,8.40
2023-02-19T03:25:38.481Z,8.35
2023-02-19T03:28:10.951Z,8.32
2023-02-19T03:30:42.888Z,8.39
2023-02-19T03:33:16.296Z,8.34
2023-02-19T03:35:47.676Z,8.34
2023-02-19T03:38:26.137Z,8.34
2023-02-19T03:41:00.797Z,8.37
2023-02-19T03:43:38.867Z,8.33
2023-02-19T03:46:12.925Z,8.26
2023-02-19T03:48:52.594Z,8.25
2023-02-19T03:51:33.796Z,8.29
2023-02-19T03:54:12.544Z,8.32
2023-02-19T03:56:50.141Z,8.26
2023-02-19T03:59:24.485Z,8.22
2023-02-19T04:01:57.191Z,8.19
2023-02-19T04:04:33.012Z,8.27
2023-02-19T04:07:01.652Z,8.20
2023-02-19T04:09:34.517Z,8.20
2023-02-19T04:12:03.781Z,8.14
2023-02-19T04:14:37.469Z,8.18
2023-02-19T04:17:10.711Z,8.20
2023-02-19T04:19:43.044Z,8.18
2023-02-19T04:22:13.280Z,8.23
2023-02-19T04:24:45.879Z,8.25
2023-02-19T04:27:14.431Z,8.17
2023-02-19T04:29:42.787Z,8.10
2023-02-19T04:32:11.846Z,8.05
2023-02-19T04:34:42.076Z,8.08
2023-02-19T04:37:10.417Z,8.10
2023-02-19T04:39:39.314Z,8.09
2023-02-19T04:42:07.685Z,8.09
2023-02-19T04:44:36.057Z,8.07
2023-02-19T04:47:04.505Z,8.05
2023-02-19T04:49:32.834Z,8.16
2023-02-19T04:52:02.715Z,8.10
2023-02-19T04:54:31.053Z,8.09
2023-02-19T04:56:59.418Z,8.03
2023-02-19T04:59:27.881Z,8.08
2023-02-19T05:01:57.409Z,8.06
2023-02-19T05:04:26.082Z,8.15
2023-02-19T05:06:55.150Z,8.07
2023-02-19T05:09:25.092Z,8.06
2023-02-19T05:11:53.421Z,8.03
2023-02-19T05:14:22.051Z,8.01
2023-02-19T05:16:50.515Z,8.07
2023-02-19T05:19:19.120Z,8.04
2023-02-19T05:21:47.473Z,8.05
2023-02-19T05:24:18.899Z,8.00
2023-02-19T05:26:48.971Z,7.98
2023-02-19T05:29:17.529Z,7.97
2023-02-19T05:31:45.958Z,7.97
2023-02-19T05:34:14.323Z,8.01
2023-02-19T05:36:42.690Z,8.02
2023-02-19T05:39:12.931Z,7.96
2023-02-19T05:41:42.148Z,7.97
2023-02-19T05:44:12.328Z,7.95
2023-02-19T05:46:41.018Z,7.95
2023-02-19T05:49:09.455Z,8.06
2023-02-19T05:51:37.996Z,8.03
2023-02-19T05:54:06.786Z,8.02
2023-02-19T05:56:36.467Z,7.97
2023-02-19T05:59:08.908Z,7.99
2023-02-19T06:01:39.109Z,8.01
2023-02-19T06:04:07.581Z,7.97
2023-02-19T06:06:37.043Z,7.95
2023-02-19T06:09:05.607Z,7.93
2023-02-19T06:11:34.365Z,7.91
2023-02-19T06:14:02.918Z,7.89
2023-02-19T06:16:33.531Z,7.91
2023-02-19T06:19:05.065Z,7.87
2023-02-19T06:21:39.225Z,7.85
2023-02-19T06:24:08.700Z,7.84
2023-02-19T06:26:37.113Z,7.88
2023-02-19T06:29:05.644Z,7.86
2023-02-19T06:31:34.708Z,7.89
2023-02-19T06:34:06.568Z,7.84
2023-02-19T06:36:35.490Z,7.87
2023-02-19T06:39:05.844Z,7.85
2023-02-19T06:41:34.850Z,7.80
2023-02-19T06:44:03.202Z,7.84
2023-02-19T06:46:31.662Z,7.81
2023-02-19T06:49:00.153Z,7.80
2023-02-19T06:51:29.938Z,7.83
2023-02-19T06:53:58.356Z,7.84
2023-02-19T06:56:28.579Z,7.85
2023-02-19T06:59:00.547Z,7.93
2023-02-19T07:01:30.761Z,7.95
2023-02-19T07:03:59.206Z,7.91
2023-02-19T07:06:28.401Z,7.92
2023-02-19T07:08:59.378Z,7.93
2023-02-19T07:11:31.239Z,7.95
2023-02-19T07:14:02.785Z,7.89
2023-02-19T07:16:53.433Z,7.85
2023-02-19T07:19:22.449Z,7.84
2023-02-19T07:21:50.825Z,7.83
2023-02-19T07:24:21.541Z,7.87
2023-02-19T07:26:51.096Z,7.86
2023-02-19T07:29:19.673Z,7.88
2023-02-19T07:31:48.163Z,7.88
2023-02-19T07:34:16.608Z,7.90
2023-02-19T07:36:45.000Z,8.00
2023-02-19T07:39:15.575Z,7.97
2023-02-19T07:41:45.492Z,7.98
2023-02-19T07:44:16.432Z,8.02
2023-02-19T07:46:45.488Z,8.01
2023-02-19T07:49:13.830Z,7.93
2023-02-19T07:51:43.695Z,7.90
2023-02-19T07:54:12.609Z,7.93
2023-02-19T07:56:41.144Z,7.95
2023-02-19T07:59:11.710Z,7.98
2023-02-19T08:01:58.002Z,7.94
2023-02-19T08:04:26.585Z,7.94
2023-02-19T08:06:54.896Z,8.01
2023-02-19T08:09:23.249Z,8.04
2023-02-19T08:12:09.572Z,8.13
2023-02-19T08:14:39.511Z,8.05
2023-02-19T08:17:07.931Z,8.02
2023-02-19T08:19:36.277Z,8.23
2023-02-19T08:22:04.736Z,8.26
2023-02-19T08:24:33.843Z,8.32
2023-02-19T08:27:02.479Z,8.46
2023-02-19T08:29:30.866Z,8.62
2023-02-19T08:32:00.585Z,8.39
2023-02-19T08:34:29.238Z,8.26
2023-02-19T08:36:57.595Z,8.25
2023-02-19T08:39:27.127Z,8.42
2023-02-19T08:41:55.706Z,8.59
2023-02-19T08:44:24.028Z,8.56
2023-02-19T08:46:52.414Z,8.42
2023-02-19T08:49:22.231Z,8.33
2023-02-19T08:51:50.768Z,8.34
2023-02-19T08:54:19.138Z,8.44
2023-02-19T08:56:47.544Z,8.34
2023-02-19T08:59:15.941Z,8.57
2023-02-19T09:01:44.450Z,8.45
2023-02-19T09:04:14.194Z,8.33
2023-02-19T09:06:44.397Z,8.25
2023-02-19T09:09:12.932Z,8.30
2023-02-19T09:11:42.452Z,8.32
2023-02-19T09:14:11.089Z,8.36
2023-02-19T09:16:39.835Z,8.30
2023-02-19T09:19:08.208Z,8.32
2023-02-19T09:21:39.024Z,8.33
2023-02-19T09:24:09.985Z,8.36
2023-02-19T09:26:38.818Z,8.35
2023-02-19T09:29:07.279Z,8.23
2023-02-19T09:31:36.014Z,8.31
2023-02-19T09:34:04.388Z,8.36
2023-02-19T09:36:33.411Z,8.42
2023-02-19T09:39:02.102Z,8.40
2023-02-19T09:41:33.770Z,8.53
2023-02-19T09:44:05.122Z,8.46
2023-02-19T09:46:39.880Z,8.56
2023-02-19T09:49:14.317Z,8.49
2023-02-19T09:51:47.333Z,8.54
2023-02-19T09:54:30.498Z,8.41
2023-02-19T09:57:03.267Z,8.44
2023-02-19T09:59:37.300Z,8.53
2023-02-19T10:02:14.377Z,8.51
2023-02-19T10:04:45.773Z,8.66
2023-02-19T10:07:15.101Z,8.66
2023-02-19T10:09:46.346Z,8.63
2023-02-19T10:12:19.947Z,8.62
2023-02-19T10:14:52.348Z,8.59
2023-02-19T10:17:24.742Z,8.71
2023-02-19T10:19:53.835Z,8.75
2023-02-19T10:22:22.269Z,8.64
2023-02-19T10:24:53.894Z,8.63
2023-02-19T10:27:27.044Z,8.64
2023-02-19T10:29:55.764Z,8.77
2023-02-19T10:32:27.396Z,8.86
2023-02-19T10:35:12.486Z,8.82
2023-02-19T10:37:46.040Z,8.70
2023-02-19T10:40:19.761Z,8.69
2023-02-19T10:42:51.529Z,8.61
2023-02-19T10:45:23.365Z,8.63
2023-02-19T10:47:52.472Z,8.91
2023-02-19T10:50:27.054Z,9.13
2023-02-19T10:52:58.637Z,9.36
2023-02-19T10:55:30.404Z,9.59
2023-02-19T10:58:25.160Z,9.55
2023-02-19T11:01:16.699Z,9.71
2023-02-19T11:03:47.166Z,9.71
2023-02-19T11:06:17.272Z,9.73
2023-02-19T11:08:52.777Z,9.58
2023-02-19T11:11:26.983Z,9.42
2023-02-19T11:13:58.498Z,9.54
2023-02-19T11:16:40.334Z,9.60
2023-02-19T11:19:24.326Z,9.57
2023-02-19T11:21:53.671Z,10.02
2023-02-19T11:24:34.207Z,9.99
2023-02-19T11:27:05.102Z,10.12
2023-02-19T11:29:35.677Z,10.13
2023-02-19T11:32:30.048Z,10.09
2023-02-19T11:35:22.411Z,9.55
2023-02-19T11:37:56.566Z,9.08
2023-02-19T11:40:36.666Z,8.91
2023-02-19T11:43:14.915Z,8.75
2023-02-19T11:45:53.073Z,8.61
2023-02-19T11:48:59.859Z,8.52
2023-02-19T11:51:44.193Z,8.14
2023-02-19T11:54:24.392Z,7.95
2023-02-19T11:57:00.416Z,7.62
2023-02-19T11:59:38.678Z,7.48
2023-02-19T12:02:44.315Z,7.37
2023-02-19T12:05:21.761Z,7.56
2023-02-19T12:08:14.196Z,7.72
2023-02-19T12:10:54.477Z,8.03
2023-02-19T12:13:29.841Z,8.24
2023-02-19T12:16:11.405Z,8.33
2023-02-19T12:19:04.388Z,8.52
2023-02-19T12:21:50.735Z,8.85
2023-02-19T12:24:45.135Z,9.13
2023-02-19T12:27:26.065Z,8.98
2023-02-19T12:30:17.229Z,8.69
2023-02-19T12:33:11.576Z,8.29
2023-02-19T12:35:49.782Z,8.42
2023-02-19T12:38:24.244Z,8.43
2023-02-19T12:41:16.207Z,8.38
2023-02-19T12:43:53.044Z,8.32
2023-02-19T12:46:28.242Z,8.30
2023-02-19T12:49:02.539Z,8.35
2023-02-19T12:51:40.206Z,8.36
2023-02-19T12:54:15.902Z,8.21
2023-02-19T12:56:50.021Z,8.27
2023-02-19T12:59:23.805Z,8.36
2023-02-19T13:02:14.735Z,8.48
2023-02-19T13:04:48.467Z,8.44
2023-02-19T13:07:24.892Z,8.42
2023-02-19T13:09:57.094Z,8.46
2023-02-19T13:12:30.136Z,8.57
2023-02-19T13:15:01.767Z,8.57
2023-02-19T13:17:39.913Z,8.62
2023-02-19T13:20:19.033Z,8.65
2023-02-19T13:23:16.702Z,8.71
2023-02-19T13:26:07.857Z,8.74
2023-02-19T13:28:50.340Z,8.74
2023-02-19T13:31:44.900Z,8.71
2023-02-19T13:34:23.368Z,8.62
2023-02-19T13:36:52.269Z,8.76
2023-02-19T13:39:23.584Z,8.85
2023-02-19T13:41:54.393Z,8.92
2023-02-19T13:44:27.308Z,8.91
2023-02-19T13:46:56.144Z,8.85
2023-02-19T13:49:46.434Z,8.77
2023-02-19T13:52:35.714Z,8.77
2023-02-19T13:55:22.818Z,8.82
2023-02-19T13:57:53.309Z,8.80
2023-02-19T14:00:49.956Z,8.80
2023-02-19T14:03:29.133Z,8.87
2023-02-19T14:06:00.817Z,8.99
2023-02-19T14:08:48.375Z,8.96
2023-02-19T14:11:17.402Z,8.97
2023-02-19T14:14:25.602Z,8.86
2023-02-19T14:17:04.726Z,8.87
2023-02-19T14:19:52.313Z,8.78
2023-02-19T14:22:52.808Z,8.72
2023-02-19T14:25:42.599Z,8.65
2023-02-19T14:28:27.187Z,8.64
2023-02-19T14:30:59.412Z,8.63
2023-02-19T14:33:30.182Z,8.64
2023-02-19T14:36:05.994Z,8.77
2023-02-19T14:38:39.892Z,8.93
2023-02-19T14:41:13.608Z,8.92
2023-02-19T14:43:43.370Z,9.10
2023-02-19T14:46:23.044Z,9.29
2023-02-19T14:48:52.261Z,9.26
2023-02-19T14:51:30.772Z,9.28
2023-02-19T14:54:03.779Z,9.26
2023-02-19T14:56:35.816Z,9.27
2023-02-19T14:59:10.278Z,9.18
2023-02-19T15:01:41.149Z,9.11
2023-02-19T15:04:22.976Z,9.04
2023-02-19T15:06:53.269Z,9.01
2023-02-19T15:09:22.638Z,9.08
2023-02-19T15:11:51.250Z,8.98
2023-02-19T15:14:23.774Z,8.96
2023-02-19T15:16:59.370Z,9.02
2023-02-19T15:19:30.122Z,8.90
2023-02-19T15:21:58.530Z,8.87
2023-02-19T15:24:28.258Z,8.96
2023-02-19T15:26:57.493Z,8.87
2023-02-19T15:29:28.467Z,8.90
2023-02-19T15:32:00.480Z,8.75
2023-02-19T15:34:31.273Z,8.78
2023-02-19T15:37:02.248Z,8.70
2023-02-19T15:39:35.621Z,8.40
2023-02-19T15:42:06.944Z,8.41
2023-02-19T15:44:42.800Z,8.14
2023-02-19T15:47:21.645Z,8.06
2023-02-19T15:49:55.227Z,8.07
2023-02-19T15:52:38.655Z,8.00
2023-02-19T15:55:24.017Z,7.92
2023-02-19T15:57:58.701Z,7.98
2023-02-19T16:00:33.508Z,7.98
2023-02-19T16:03:03.992Z,7.91
2023-02-19T16:05:39.253Z,7.88
2023-02-19T16:08:16.789Z,7.84
2023-02-19T16:10:57.325Z,7.92
2023-02-19T16:13:27.719Z,7.90
2023-02-19T16:16:15.220Z,7.80
2023-02-19T16:18:50.392Z,7.83
2023-02-19T16:21:23.016Z,7.71
2023-02-19T16:23:56.852Z,7.75
2023-02-19T16:26:25.541Z,7.69
2023-02-19T16:28:55.326Z,7.64
2023-02-19T16:31:24.770Z,7.64
2023-02-19T16:33:54.627Z,7.56
2023-02-19T16:36:27.292Z,7.64
2023-02-19T16:39:14.987Z,7.53
2023-02-19T16:42:17.139Z,7.57
2023-02-19T16:44:46.598Z,7.52
2023-02-19T16:47:21.444Z,7.52
2023-02-19T16:49:51.470Z,7.48
2023-02-19T16:52:19.888Z,7.46
2023-02-19T16:54:48.983Z,7.49
2023-02-19T16:57:18.153Z,7.58
2023-02-19T16:59:47.159Z,7.67
2023-02-19T17:02:20.191Z,7.71
2023-02-19T17:04:51.774Z,7.68
2023-02-19T17:07:21.370Z,7.68
2023-02-19T17:09:49.701Z,7.77
2023-02-19T17:12:18.768Z,7.78
2023-02-19T17:14:47.238Z,7.68
2023-02-19T17:17:15.606Z,7.68
2023-02-19T17:19:44.101Z,7.78
2023-02-19T17:22:16.855Z,7.76
2023-02-19T17:24:45.933Z,7.64
2023-02-19T17:27:14.372Z,7.58
2023-02-19T17:29:42.922Z,7.61
2023-02-19T17:32:11.374Z,7.74
2023-02-19T17:34:39.960Z,7.67
2023-02-19T17:37:08.450Z,7.57
2023-02-19T17:39:38.235Z,7.50
2023-02-19T17:42:06.820Z,7.42
2023-02-19T17:44:35.292Z,7.44
2023-02-19T17:47:03.759Z,7.42
2023-02-19T17:49:32.744Z,7.42
2023-02-19T17:52:01.040Z,7.42
2023-02-19T17:54:29.410Z,7.43
2023-02-19T17:56:59.061Z,7.39
2023-02-19T17:59:27.564Z,7.39
2023-02-19T18:01:56.047Z,7.31
2023-02-19T18:04:24.520Z,7.24
2023-02-19T18:06:53.855Z,7.16
2023-02-19T18:09:23.021Z,7.14
2023-02-19T18:11:51.455Z,7.15
2023-02-19T18:14:21.437Z,7.12
2023-02-19T18:16:50.837Z,7.06
2023-02-19T18:19:19.988Z,6.97
2023-02-19T18:21:48.395Z,6.84
2023-02-19T18:24:16.881Z,6.81
2023-02-19T18:26:45.622Z,6.76
2023-02-19T18:29:14.339Z,6.62
2023-02-19T18:31:44.172Z,6.51
2023-02-19T18:34:18.526Z,6.43
2023-02-19T18:36:47.267Z,6.36
2023-02-19T18:39:16.114Z,6.30
2023-02-19T18:41:48.267Z,6.26
2023-02-19T18:44:20.926Z,6.12
2023-02-19T18:46:51.174Z,6.06
2023-02-19T18:49:19.597Z,6.02
2023-02-19T18:51:47.965Z,5.95
2023-02-19T18:54:16.667Z,5.88
2023-02-19T18:56:46.662Z,5.85
2023-02-19T18:59:15.213Z,5.75
2023-02-19T19:01:44.201Z,5.64
2023-02-19T19:04:14.349Z,5.56
2023-02-19T19:06:42.673Z,5.42
2023-02-19T19:09:11.446Z,5.47
2023-02-19T19:11:41.286Z,5.52
2023-02-19T19:14:09.703Z,5.53
2023-02-19T19:16:38.101Z,5.57
2023-02-19T19:19:06.428Z,5.51
2023-02-19T19:21:36.189Z,5.50
2023-02-19T19:24:05.193Z,5.47
2023-02-19T19:26:33.732Z,5.41
2023-02-19T19:29:02.401Z,5.29
2023-02-19T19:31:35.665Z,5.26
2023-02-19T19:34:04.592Z,5.24
2023-02-19T19:36:33.104Z,5.35
2023-02-19T19:39:03.056Z,5.38
2023-02-19T19:41:31.849Z,5.41
2023-02-19T19:44:03.458Z,5.48
2023-02-19T19:46:33.078Z,5.55
2023-02-19T19:49:01.978Z,5.57
2023-02-19T19:51:34.196Z,5.50
2023-02-19T19:54:05.006Z,5.50
2023-02-19T19:56:33.390Z,5.49
2023-02-19T19:59:01.818Z,5.43
2023-02-19T20:01:30.230Z,5.55
2023-02-19T20:03:58.806Z,5.56
2023-02-19T20:06:28.894Z,5.52
2023-02-19T20:08:57.596Z,5.57
2023-02-19T20:11:27.565Z,5.53
2023-02-19T20:13:55.930Z,5.56
2023-02-19T20:16:26.076Z,5.51
2023-02-19T20:18:54.678Z,5.46
2023-02-19T20:21:30.674Z,5.37
2023-02-19T20:23:59.272Z,5.44
2023-02-19T20:26:30.244Z,5.27
2023-02-19T20:29:00.104Z,5.34
2023-02-19T20:31:28.755Z,5.39
2023-02-19T20:33:57.300Z,5.48
2023-02-19T20:36:28.467Z,5.46
2023-02-19T20:38:57.259Z,5.43
2023-02-19T20:41:25.737Z,5.51
2023-02-19T20:43:55.716Z,5.46
2023-02-19T20:46:24.139Z,5.47
2023-02-19T20:48:52.516Z,5.50
2023-02-19T20:51:21.365Z,5.48
2023-02-19T20:53:49.804Z,5.59
2023-02-19T20:56:18.183Z,5.56
2023-02-19T20:58:46.523Z,5.47
2023-02-19T21:01:16.264Z,5.42
2023-02-19T21:03:44.766Z,5.40
2023-02-19T21:06:13.488Z,5.43
2023-02-19T21:08:42.042Z,5.40
2023-02-19T21:11:10.660Z,5.43
2023-02-19T21:13:39.076Z,5.43
2023-02-19T21:16:08.037Z,5.50
2023-02-19T21:18:37.700Z,5.48
2023-02-19T21:21:06.558Z,5.60
2023-02-19T21:23:35.074Z,5.60
2023-02-19T21:26:03.765Z,5.48
2023-02-19T21:28:32.670Z,5.49
2023-02-19T21:31:01.460Z,5.41
2023-02-19T21:33:29.991Z,5.49
2023-02-19T21:35:59.945Z,5.47
2023-02-19T21:38:28.303Z,5.49
2023-02-19T21:40:56.961Z,5.54
2023-02-19T21:43:25.337Z,5.45
2023-02-19T21:45:53.914Z,5.48
2023-02-19T21:48:22.405Z,5.41
2023-02-19T21:50:50.737Z,5.31
2023-02-19T21:53:20.582Z,5.29
2023-02-19T21:55:58.402Z,5.33
2023-02-19T21:58:27.681Z,5.34
2023-02-19T22:00:57.885Z,5.28
2023-02-19T22:03:27.035Z,5.29
2023-02-19T22:05:55.593Z,5.32
2023-02-19T22:08:25.337Z,5.34
2023-02-19T22:10:53.964Z,5.39
2023-02-19T22:13:25.244Z,5.34
2023-02-19T22:15:53.968Z,5.40
2023-02-19T22:18:23.855Z,5.38
2023-02-19T22:20:52.309Z,5.45
2023-02-19T22:23:30.559Z,5.29
2023-02-19T22:25:59.637Z,5.44
2023-02-19T22:28:27.924Z,5.49
2023-02-19T22:30:58.556Z,5.37
2023-02-19T22:33:26.914Z,5.45
2023-02-19T22:35:55.232Z,5.35
2023-02-19T22:38:23.943Z,5.37
2023-02-19T22:40:53.598Z,5.39
2023-02-19T22:43:22.224Z,5.30
2023-02-19T22:45:50.550Z,5.24
2023-02-19T22:48:29.683Z,5.27
2023-02-19T22:50:58.830Z,5.15
2023-02-19T22:53:27.200Z,5.06
2023-02-19T22:55:57.138Z,4.93
2023-02-19T22:58:25.852Z,4.86
2023-02-19T23:00:54.580Z,4.75
2023-02-19T23:03:23.068Z,4.73
2023-02-19T23:05:53.424Z,4.55
2023-02-19T23:08:21.810Z,4.49
2023-02-19T23:10:51.135Z,4.42
2023-02-19T23:13:22.620Z,4.42
2023-02-19T23:15:53.213Z,4.39
2023-02-19T23:18:21.728Z,4.39
2023-02-19T23:20:51.701Z,4.49
2023-02-19T23:23:20.013Z,4.45
2023-02-19T23:25:48.377Z,4.46
2023-02-19T23:28:16.938Z,4.54
2023-02-19T23:30:46.787Z,4.49
2023-02-19T23:33:15.216Z,4.55
2023-02-19T23:35:43.948Z,4.46
2023-02-19T23:38:12.391Z,4.51
2023-02-19T23:40:40.947Z,4.48
2023-02-19T23:43:09.400Z,4.40
2023-02-19T23:45:37.760Z,4.51
2023-02-19T23:48:07.642Z,4.55
2023-02-19T23:50:35.995Z,4.60
2023-02-19T23:53:04.550Z,4.56
2023-02-19T23:55:33.403Z,4.64
2023-02-19T23:58:01.881Z,4.61
